sensor_id;sensor_type;location;lat;lon;timestamp;temperature;humidity
16970;DHT22;8601;48.718;8.992;2023-07-13T00:00:48;19.30;85.70
16970;DHT22;8601;48.718;8.992;2023-07-13T00:03:15;19.30;87.20
16970;DHT22;8601;48.718;8.992;2023-07-13T00:05:43;19.20;90.10
16970;DHT22;8601;48.718;8.992;2023-07-13T00:08:11;19.10;86.10
16970;DHT22;8601;48.718;8.992;2023-07-13T00:10:41;19.00;89.70
16970;DHT22;8601;48.718;8.992;2023-07-13T00:13:08;18.90;88.50
16970;DHT22;8601;48.718;8.992;2023-07-13T00:15:36;18.90;90.20
16970;DHT22;8601;48.718;8.992;2023-07-13T00:18:03;18.90;90.60
16970;DHT22;8601;48.718;8.992;2023-07-13T00:20:30;18.80;91.80
16970;DHT22;8601;48.718;8.992;2023-07-13T00:22:57;18.80;92.20
16970;DHT22;8601;48.718;8.992;2023-07-13T00:25:26;18.60;91.70
16970;DHT22;8601;48.718;8.992;2023-07-13T00:27:54;18.60;91.00
16970;DHT22;8601;48.718;8.992;2023-07-13T00:30:21;18.60;90.90
16970;DHT22;8601;48.718;8.992;2023-07-13T00:32:49;18.60;90.90
16970;DHT22;8601;48.718;8.992;2023-07-13T00:35:16;18.60;90.50
16970;DHT22;8601;48.718;8.992;2023-07-13T00:37:44;18.60;90.00
16970;DHT22;8601;48.718;8.992;2023-07-13T00:40:13;18.50;88.50
16970;DHT22;8601;48.718;8.992;2023-07-13T00:42:41;18.50;88.80
16970;DHT22;8601;48.718;8.992;2023-07-13T00:48:09;18.50;87.40
16970;DHT22;8601;48.718;8.992;2023-07-13T00:50:37;18.40;90.10
16970;DHT22;8601;48.718;8.992;2023-07-13T00:53:04;18.50;88.00
16970;DHT22;8601;48.718;8.992;2023-07-13T00:55:30;18.60;88.20
16970;DHT22;8601;48.718;8.992;2023-07-13T00:57:59;18.60;87.70
16970;DHT22;8601;48.718;8.992;2023-07-13T01:00:27;18.60;88.30
16970;DHT22;8601;48.718;8.992;2023-07-13T01:02:55;18.60;87.40
16970;DHT22;8601;48.718;8.992;2023-07-13T01:05:24;18.70;88.50
16970;DHT22;8601;48.718;8.992;2023-07-13T01:07:52;18.60;87.10
16970;DHT22;8601;48.718;8.992;2023-07-13T01:10:22;18.70;87.80
16970;DHT22;8601;48.718;8.992;2023-07-13T01:12:49;18.80;86.00
16970;DHT22;8601;48.718;8.992;2023-07-13T01:15:39;18.80;90.00
16970;DHT22;8601;48.718;8.992;2023-07-13T01:18:07;18.60;90.80
16970;DHT22;8601;48.718;8.992;2023-07-13T01:20:36;18.30;90.60
16970;DHT22;8601;48.718;8.992;2023-07-13T01:23:06;18.10;90.50
16970;DHT22;8601;48.718;8.992;2023-07-13T01:25:34;18.10;91.50
16970;DHT22;8601;48.718;8.992;2023-07-13T01:28:01;18.10;90.60
16970;DHT22;8601;48.718;8.992;2023-07-13T01:30:28;18.10;90.80
16970;DHT22;8601;48.718;8.992;2023-07-13T01:32:55;18.10;90.20
16970;DHT22;8601;48.718;8.992;2023-07-13T01:35:21;18.00;91.10
16970;DHT22;8601;48.718;8.992;2023-07-13T01:37:50;17.90;91.80
16970;DHT22;8601;48.718;8.992;2023-07-13T01:40:19;17.90;91.40
16970;DHT22;8601;48.718;8.992;2023-07-13T01:42:47;17.80;91.30
16970;DHT22;8601;48.718;8.992;2023-07-13T01:45:14;17.70;90.60
16970;DHT22;8601;48.718;8.992;2023-07-13T01:47:41;17.70;90.80
16970;DHT22;8601;48.718;8.992;2023-07-13T01:50:08;17.70;90.50
16970;DHT22;8601;48.718;8.992;2023-07-13T01:52:35;17.60;90.80
16970;DHT22;8601;48.718;8.992;2023-07-13T01:55:03;17.60;90.70
16970;DHT22;8601;48.718;8.992;2023-07-13T01:57:31;17.70;91.10
16970;DHT22;8601;48.718;8.992;2023-07-13T01:59:58;17.70;89.20
16970;DHT22;8601;48.718;8.992;2023-07-13T02:02:25;17.80;90.10
16970;DHT22;8601;48.718;8.992;2023-07-13T02:04:52;17.70;90.70
16970;DHT22;8601;48.718;8.992;2023-07-13T02:07:20;17.70;91.00
16970;DHT22;8601;48.718;8.992;2023-07-13T02:09:46;17.60;91.00
16970;DHT22;8601;48.718;8.992;2023-07-13T02:12:14;17.60;90.10
16970;DHT22;8601;48.718;8.992;2023-07-13T02:14:43;17.50;90.70
16970;DHT22;8601;48.718;8.992;2023-07-13T02:17:10;17.40;90.90
16970;DHT22;8601;48.718;8.992;2023-07-13T02:19:37;17.50;90.90
16970;DHT22;8601;48.718;8.992;2023-07-13T02:22:04;17.50;91.70
16970;DHT22;8601;48.718;8.992;2023-07-13T02:24:31;17.30;91.20
16970;DHT22;8601;48.718;8.992;2023-07-13T02:26:59;17.30;91.40
16970;DHT22;8601;48.718;8.992;2023-07-13T02:29:26;17.40;91.70
16970;DHT22;8601;48.718;8.992;2023-07-13T02:31:54;17.40;92.40
16970;DHT22;8601;48.718;8.992;2023-07-13T02:34:21;17.30;92.10
16970;DHT22;8601;48.718;8.992;2023-07-13T02:36:48;17.30;92.00
16970;DHT22;8601;48.718;8.992;2023-07-13T02:39:15;17.30;91.70
16970;DHT22;8601;48.718;8.992;2023-07-13T02:41:42;17.30;91.80
16970;DHT22;8601;48.718;8.992;2023-07-13T02:44:09;17.30;91.60
16970;DHT22;8601;48.718;8.992;2023-07-13T02:46:39;17.20;91.80
16970;DHT22;8601;48.718;8.992;2023-07-13T02:49:07;17.20;91.80
16970;DHT22;8601;48.718;8.992;2023-07-13T02:51:35;17.10;92.00
16970;DHT22;8601;48.718;8.992;2023-07-13T02:54:03;17.10;92.30
16970;DHT22;8601;48.718;8.992;2023-07-13T02:56:31;17.00;92.20
16970;DHT22;8601;48.718;8.992;2023-07-13T02:58:59;17.00;92.00
16970;DHT22;8601;48.718;8.992;2023-07-13T03:01:26;16.90;92.00
16970;DHT22;8601;48.718;8.992;2023-07-13T03:03:53;16.80;92.00
16970;DHT22;8601;48.718;8.992;2023-07-13T03:06:21;16.90;92.90
16970;DHT22;8601;48.718;8.992;2023-07-13T03:08:48;17.00;93.10
16970;DHT22;8601;48.718;8.992;2023-07-13T03:11:18;17.00;92.30
16970;DHT22;8601;48.718;8.992;2023-07-13T03:13:46;16.80;92.40
16970;DHT22;8601;48.718;8.992;2023-07-13T03:16:14;17.00;92.10
16970;DHT22;8601;48.718;8.992;2023-07-13T03:18:42;17.10;92.60
16970;DHT22;8601;48.718;8.992;2023-07-13T03:21:10;17.00;91.70
16970;DHT22;8601;48.718;8.992;2023-07-13T03:23:39;17.00;92.20
16970;DHT22;8601;48.718;8.992;2023-07-13T03:26:10;17.00;92.80
16970;DHT22;8601;48.718;8.992;2023-07-13T03:28:38;17.20;92.50
16970;DHT22;8601;48.718;8.992;2023-07-13T03:31:07;17.20;92.20
16970;DHT22;8601;48.718;8.992;2023-07-13T03:33:35;17.10;92.70
16970;DHT22;8601;48.718;8.992;2023-07-13T03:36:03;17.00;93.00
16970;DHT22;8601;48.718;8.992;2023-07-13T03:38:30;17.10;92.80
16970;DHT22;8601;48.718;8.992;2023-07-13T03:40:59;16.90;93.00
16970;DHT22;8601;48.718;8.992;2023-07-13T03:43:26;17.00;93.10
16970;DHT22;8601;48.718;8.992;2023-07-13T03:45:53;16.90;93.30
16970;DHT22;8601;48.718;8.992;2023-07-13T03:48:20;16.90;93.50
16970;DHT22;8601;48.718;8.992;2023-07-13T03:50:47;17.00;93.50
16970;DHT22;8601;48.718;8.992;2023-07-13T03:53:14;17.10;93.30
16970;DHT22;8601;48.718;8.992;2023-07-13T03:55:41;17.00;92.90
16970;DHT22;8601;48.718;8.992;2023-07-13T03:58:32;17.10;92.80
16970;DHT22;8601;48.718;8.992;2023-07-13T04:01:00;17.20;92.10
16970;DHT22;8601;48.718;8.992;2023-07-13T04:03:28;17.30;92.90
16970;DHT22;8601;48.718;8.992;2023-07-13T04:05:55;17.30;92.60
16970;DHT22;8601;48.718;8.992;2023-07-13T04:08:26;17.40;92.00
16970;DHT22;8601;48.718;8.992;2023-07-13T04:10:53;17.50;92.50
16970;DHT22;8601;48.718;8.992;2023-07-13T04:13:20;17.40;92.60
16970;DHT22;8601;48.718;8.992;2023-07-13T04:15:48;17.40;92.70
16970;DHT22;8601;48.718;8.992;2023-07-13T04:18:15;17.40;93.20
16970;DHT22;8601;48.718;8.992;2023-07-13T04:20:42;17.40;92.30
16970;DHT22;8601;48.718;8.992;2023-07-13T04:23:09;17.40;92.40
16970;DHT22;8601;48.718;8.992;2023-07-13T04:25:36;17.40;92.40
16970;DHT22;8601;48.718;8.992;2023-07-13T04:28:04;17.40;93.20
16970;DHT22;8601;48.718;8.992;2023-07-13T04:30:31;17.30;93.00
16970;DHT22;8601;48.718;8.992;2023-07-13T04:32:59;17.30;93.50
16970;DHT22;8601;48.718;8.992;2023-07-13T04:35:27;17.10;93.10
16970;DHT22;8601;48.718;8.992;2023-07-13T04:37:54;17.10;94.20
16970;DHT22;8601;48.718;8.992;2023-07-13T04:40:22;17.10;93.80
16970;DHT22;8601;48.718;8.992;2023-07-13T04:42:48;16.90;93.80
16970;DHT22;8601;48.718;8.992;2023-07-13T04:45:15;17.00;93.90
16970;DHT22;8601;48.718;8.992;2023-07-13T04:47:43;16.90;93.60
16970;DHT22;8601;48.718;8.992;2023-07-13T04:50:13;16.90;94.30
16970;DHT22;8601;48.718;8.992;2023-07-13T04:52:41;17.00;94.50
16970;DHT22;8601;48.718;8.992;2023-07-13T04:55:08;17.00;94.00
16970;DHT22;8601;48.718;8.992;2023-07-13T04:57:35;16.90;94.00
16970;DHT22;8601;48.718;8.992;2023-07-13T05:00:02;16.80;94.10
16970;DHT22;8601;48.718;8.992;2023-07-13T05:02:32;16.80;94.70
16970;DHT22;8601;48.718;8.992;2023-07-13T05:04:59;16.80;94.80
16970;DHT22;8601;48.718;8.992;2023-07-13T05:07:27;16.90;94.90
16970;DHT22;8601;48.718;8.992;2023-07-13T05:09:54;17.00;95.10
16970;DHT22;8601;48.718;8.992;2023-07-13T05:12:21;17.10;95.60
16970;DHT22;8601;48.718;8.992;2023-07-13T05:14:48;17.20;95.40
16970;DHT22;8601;48.718;8.992;2023-07-13T05:17:15;17.40;95.70
16970;DHT22;8601;48.718;8.992;2023-07-13T05:19:42;17.50;95.40
16970;DHT22;8601;48.718;8.992;2023-07-13T05:22:09;17.50;95.40
16970;DHT22;8601;48.718;8.992;2023-07-13T05:24:37;17.50;95.20
16970;DHT22;8601;48.718;8.992;2023-07-13T05:27:05;17.60;95.00
16970;DHT22;8601;48.718;8.992;2023-07-13T05:29:32;17.70;94.60
16970;DHT22;8601;48.718;8.992;2023-07-13T05:31:59;17.70;94.80
16970;DHT22;8601;48.718;8.992;2023-07-13T05:34:26;18.00;94.10
16970;DHT22;8601;48.718;8.992;2023-07-13T05:36:53;18.00;93.70
16970;DHT22;8601;48.718;8.992;2023-07-13T05:39:20;17.90;93.70
16970;DHT22;8601;48.718;8.992;2023-07-13T05:41:48;17.80;93.00
16970;DHT22;8601;48.718;8.992;2023-07-13T05:44:15;17.80;93.70
16970;DHT22;8601;48.718;8.992;2023-07-13T05:46:42;17.80;95.00
16970;DHT22;8601;48.718;8.992;2023-07-13T05:49:09;17.80;93.70
16970;DHT22;8601;48.718;8.992;2023-07-13T05:51:36;17.80;94.20
16970;DHT22;8601;48.718;8.992;2023-07-13T05:54:03;17.80;92.60
16970;DHT22;8601;48.718;8.992;2023-07-13T05:56:30;17.70;93.30
16970;DHT22;8601;48.718;8.992;2023-07-13T05:58:59;17.60;92.20
16970;DHT22;8601;48.718;8.992;2023-07-13T06:01:26;17.60;93.10
16970;DHT22;8601;48.718;8.992;2023-07-13T06:03:53;17.60;92.50
16970;DHT22;8601;48.718;8.992;2023-07-13T06:06:20;17.70;93.80
16970;DHT22;8601;48.718;8.992;2023-07-13T06:08:46;17.70;93.60
16970;DHT22;8601;48.718;8.992;2023-07-13T06:11:15;17.70;93.10
16970;DHT22;8601;48.718;8.992;2023-07-13T06:13:43;17.70;93.30
16970;DHT22;8601;48.718;8.992;2023-07-13T06:16:11;17.70;92.90
16970;DHT22;8601;48.718;8.992;2023-07-13T06:18:39;17.90;92.50
16970;DHT22;8601;48.718;8.992;2023-07-13T06:21:07;18.10;92.50
16970;DHT22;8601;48.718;8.992;2023-07-13T06:23:34;18.20;90.00
16970;DHT22;8601;48.718;8.992;2023-07-13T06:26:01;18.20;90.10
16970;DHT22;8601;48.718;8.992;2023-07-13T06:28:29;18.20;91.20
16970;DHT22;8601;48.718;8.992;2023-07-13T06:30:57;18.30;89.40
16970;DHT22;8601;48.718;8.992;2023-07-13T06:33:26;18.30;89.90
16970;DHT22;8601;48.718;8.992;2023-07-13T06:35:54;18.40;88.80
16970;DHT22;8601;48.718;8.992;2023-07-13T06:38:22;18.40;85.40
16970;DHT22;8601;48.718;8.992;2023-07-13T06:40:49;18.40;84.40
16970;DHT22;8601;48.718;8.992;2023-07-13T06:43:16;18.60;85.90
16970;DHT22;8601;48.718;8.992;2023-07-13T06:45:45;18.60;85.10
16970;DHT22;8601;48.718;8.992;2023-07-13T06:48:13;18.70;86.00
16970;DHT22;8601;48.718;8.992;2023-07-13T06:50:42;18.80;86.40
16970;DHT22;8601;48.718;8.992;2023-07-13T06:53:10;18.70;84.80
16970;DHT22;8601;48.718;8.992;2023-07-13T06:55:37;18.90;86.10
16970;DHT22;8601;48.718;8.992;2023-07-13T06:58:04;18.90;83.10
16970;DHT22;8601;48.718;8.992;2023-07-13T07:00:32;18.90;79.70
16970;DHT22;8601;48.718;8.992;2023-07-13T07:02:59;18.80;81.40
16970;DHT22;8601;48.718;8.992;2023-07-13T07:05:26;18.80;81.10
16970;DHT22;8601;48.718;8.992;2023-07-13T07:07:55;18.90;79.70
16970;DHT22;8601;48.718;8.992;2023-07-13T07:10:22;18.90;80.40
16970;DHT22;8601;48.718;8.992;2023-07-13T07:12:49;19.00;80.40
16970;DHT22;8601;48.718;8.992;2023-07-13T07:15:17;19.00;77.50
16970;DHT22;8601;48.718;8.992;2023-07-13T07:17:44;19.00;79.50
16970;DHT22;8601;48.718;8.992;2023-07-13T07:20:12;19.10;80.20
16970;DHT22;8601;48.718;8.992;2023-07-13T07:22:39;19.10;78.70
16970;DHT22;8601;48.718;8.992;2023-07-13T07:25:07;19.10;75.90
16970;DHT22;8601;48.718;8.992;2023-07-13T07:27:34;19.00;77.00
16970;DHT22;8601;48.718;8.992;2023-07-13T07:30:01;19.00;75.40
16970;DHT22;8601;48.718;8.992;2023-07-13T07:32:29;19.20;79.70
16970;DHT22;8601;48.718;8.992;2023-07-13T07:34:56;19.30;80.30
16970;DHT22;8601;48.718;8.992;2023-07-13T07:37:23;19.40;80.10
16970;DHT22;8601;48.718;8.992;2023-07-13T07:39:50;19.40;72.20
16970;DHT22;8601;48.718;8.992;2023-07-13T07:42:19;19.40;75.80
16970;DHT22;8601;48.718;8.992;2023-07-13T07:44:45;19.60;75.60
16970;DHT22;8601;48.718;8.992;2023-07-13T07:47:12;19.70;72.70
16970;DHT22;8601;48.718;8.992;2023-07-13T07:49:39;19.80;69.50
16970;DHT22;8601;48.718;8.992;2023-07-13T07:52:07;19.80;71.80
16970;DHT22;8601;48.718;8.992;2023-07-13T07:54:34;19.90;68.30
16970;DHT22;8601;48.718;8.992;2023-07-13T07:57:01;19.90;69.20
16970;DHT22;8601;48.718;8.992;2023-07-13T07:59:29;20.00;67.10
16970;DHT22;8601;48.718;8.992;2023-07-13T08:01:56;20.10;67.50
16970;DHT22;8601;48.718;8.992;2023-07-13T08:04:23;20.10;68.80
16970;DHT22;8601;48.718;8.992;2023-07-13T08:06:50;20.20;67.70
16970;DHT22;8601;48.718;8.992;2023-07-13T08:09:17;20.20;68.30
16970;DHT22;8601;48.718;8.992;2023-07-13T08:11:43;20.10;67.50
16970;DHT22;8601;48.718;8.992;2023-07-13T08:14:10;20.20;68.50
16970;DHT22;8601;48.718;8.992;2023-07-13T08:16:41;20.30;66.10
16970;DHT22;8601;48.718;8.992;2023-07-13T08:19:07;20.50;68.00
16970;DHT22;8601;48.718;8.992;2023-07-13T08:21:34;20.70;72.70
16970;DHT22;8601;48.718;8.992;2023-07-13T08:24:02;20.70;66.40
16970;DHT22;8601;48.718;8.992;2023-07-13T08:26:29;20.80;72.00
16970;DHT22;8601;48.718;8.992;2023-07-13T08:28:56;20.80;64.80
16970;DHT22;8601;48.718;8.992;2023-07-13T08:31:23;20.90;65.00
16970;DHT22;8601;48.718;8.992;2023-07-13T08:33:51;20.90;64.50
16970;DHT22;8601;48.718;8.992;2023-07-13T08:36:18;21.10;68.00
16970;DHT22;8601;48.718;8.992;2023-07-13T08:38:46;21.20;66.80
16970;DHT22;8601;48.718;8.992;2023-07-13T08:41:15;21.30;65.20
16970;DHT22;8601;48.718;8.992;2023-07-13T08:43:46;21.60;70.40
16970;DHT22;8601;48.718;8.992;2023-07-13T08:46:18;21.70;63.60
16970;DHT22;8601;48.718;8.992;2023-07-13T08:48:48;21.90;64.00
16970;DHT22;8601;48.718;8.992;2023-07-13T08:51:27;22.10;66.10
16970;DHT22;8601;48.718;8.992;2023-07-13T08:53:58;22.10;62.30
16970;DHT22;8601;48.718;8.992;2023-07-13T08:56:28;22.20;66.30
16970;DHT22;8601;48.718;8.992;2023-07-13T08:58:58;22.20;60.80
16970;DHT22;8601;48.718;8.992;2023-07-13T09:01:31;22.40;61.50
16970;DHT22;8601;48.718;8.992;2023-07-13T09:04:05;22.60;60.30
16970;DHT22;8601;48.718;8.992;2023-07-13T09:06:44;22.60;58.40
16970;DHT22;8601;48.718;8.992;2023-07-13T09:09:21;22.70;66.40
16970;DHT22;8601;48.718;8.992;2023-07-13T09:12:00;23.10;60.30
16970;DHT22;8601;48.718;8.992;2023-07-13T09:14:42;23.20;61.50
16970;DHT22;8601;48.718;8.992;2023-07-13T09:17:14;23.00;59.70
16970;DHT22;8601;48.718;8.992;2023-07-13T09:19:45;23.00;63.40
16970;DHT22;8601;48.718;8.992;2023-07-13T09:22:17;22.90;62.50
16970;DHT22;8601;48.718;8.992;2023-07-13T09:24:52;23.20;67.40
16970;DHT22;8601;48.718;8.992;2023-07-13T09:27:23;22.90;59.30
16970;DHT22;8601;48.718;8.992;2023-07-13T09:29:54;23.10;64.00
16970;DHT22;8601;48.718;8.992;2023-07-13T09:32:24;23.40;59.30
16970;DHT22;8601;48.718;8.992;2023-07-13T09:34:53;23.60;61.10
16970;DHT22;8601;48.718;8.992;2023-07-13T09:37:27;24.00;58.30
16970;DHT22;8601;48.718;8.992;2023-07-13T09:39:56;24.20;58.60
16970;DHT22;8601;48.718;8.992;2023-07-13T09:42:25;24.50;57.10
16970;DHT22;8601;48.718;8.992;2023-07-13T09:44:55;24.40;55.40
16970;DHT22;8601;48.718;8.992;2023-07-13T09:47:24;24.40;54.70
16970;DHT22;8601;48.718;8.992;2023-07-13T09:49:57;24.40;56.00
16970;DHT22;8601;48.718;8.992;2023-07-13T09:52:26;24.70;57.90
16970;DHT22;8601;48.718;8.992;2023-07-13T09:54:54;24.20;54.20
16970;DHT22;8601;48.718;8.992;2023-07-13T09:57:26;24.40;59.00
16970;DHT22;8601;48.718;8.992;2023-07-13T09:59:55;24.30;55.30
16970;DHT22;8601;48.718;8.992;2023-07-13T10:02:27;24.50;55.30
16970;DHT22;8601;48.718;8.992;2023-07-13T10:04:58;24.40;54.80
16970;DHT22;8601;48.718;8.992;2023-07-13T10:07:27;24.60;56.10
16970;DHT22;8601;48.718;8.992;2023-07-13T10:09:55;24.40;53.70
16970;DHT22;8601;48.718;8.992;2023-07-13T10:12:23;24.50;53.60
16970;DHT22;8601;48.718;8.992;2023-07-13T10:14:52;24.40;54.80
16970;DHT22;8601;48.718;8.992;2023-07-13T10:17:27;24.30;54.20
16970;DHT22;8601;48.718;8.992;2023-07-13T10:19:58;24.40;54.90
16970;DHT22;8601;48.718;8.992;2023-07-13T10:22:36;24.10;57.80
16970;DHT22;8601;48.718;8.992;2023-07-13T10:25:13;24.10;55.10
16970;DHT22;8601;48.718;8.992;2023-07-13T10:27:40;24.20;58.20
16970;DHT22;8601;48.718;8.992;2023-07-13T10:30:13;24.10;56.40
16970;DHT22;8601;48.718;8.992;2023-07-13T10:32:42;23.90;54.50
16970;DHT22;8601;48.718;8.992;2023-07-13T10:35:13;23.90;58.40
16970;DHT22;8601;48.718;8.992;2023-07-13T10:37:47;23.90;56.80
16970;DHT22;8601;48.718;8.992;2023-07-13T10:40:19;23.70;54.00
16970;DHT22;8601;48.718;8.992;2023-07-13T10:42:51;24.00;54.90
16970;DHT22;8601;48.718;8.992;2023-07-13T10:45:22;23.90;55.60
16970;DHT22;8601;48.718;8.992;2023-07-13T10:47:51;23.70;55.00
16970;DHT22;8601;48.718;8.992;2023-07-13T10:50:24;23.80;55.80
16970;DHT22;8601;48.718;8.992;2023-07-13T10:52:55;23.80;57.50
16970;DHT22;8601;48.718;8.992;2023-07-13T10:55:41;24.10;58.70
16970;DHT22;8601;48.718;8.992;2023-07-13T10:58:23;24.20;57.20
16970;DHT22;8601;48.718;8.992;2023-07-13T11:01:07;24.40;56.00
16970;DHT22;8601;48.718;8.992;2023-07-13T11:03:36;24.40;54.60
16970;DHT22;8601;48.718;8.992;2023-07-13T11:06:12;24.40;53.90
16970;DHT22;8601;48.718;8.992;2023-07-13T11:08:54;24.70;55.70
16970;DHT22;8601;48.718;8.992;2023-07-13T11:11:34;25.20;55.90
16970;DHT22;8601;48.718;8.992;2023-07-13T11:14:03;25.00;54.00
16970;DHT22;8601;48.718;8.992;2023-07-13T11:16:43;24.70;53.80
16970;DHT22;8601;48.718;8.992;2023-07-13T11:19:37;24.60;53.20
16970;DHT22;8601;48.718;8.992;2023-07-13T11:22:16;24.80;55.00
16970;DHT22;8601;48.718;8.992;2023-07-13T11:25:02;25.10;51.40
16970;DHT22;8601;48.718;8.992;2023-07-13T11:27:51;25.30;51.10
16970;DHT22;8601;48.718;8.992;2023-07-13T11:30:25;25.90;49.20
16970;DHT22;8601;48.718;8.992;2023-07-13T11:33:11;25.80;50.80
16970;DHT22;8601;48.718;8.992;2023-07-13T11:35:46;26.40;52.10
16970;DHT22;8601;48.718;8.992;2023-07-13T11:38:18;26.30;52.10
16970;DHT22;8601;48.718;8.992;2023-07-13T11:44:13;25.30;53.60
16970;DHT22;8601;48.718;8.992;2023-07-13T11:46:45;24.90;54.20
16970;DHT22;8601;48.718;8.992;2023-07-13T11:49:16;25.00;55.00
16970;DHT22;8601;48.718;8.992;2023-07-13T11:51:44;25.30;52.60
16970;DHT22;8601;48.718;8.992;2023-07-13T11:54:20;25.70;52.40
16970;DHT22;8601;48.718;8.992;2023-07-13T11:56:49;25.80;52.10
16970;DHT22;8601;48.718;8.992;2023-07-13T11:59:18;25.60;52.50
16970;DHT22;8601;48.718;8.992;2023-07-13T12:01:53;25.70;50.50
16970;DHT22;8601;48.718;8.992;2023-07-13T12:04:23;25.50;52.00
16970;DHT22;8601;48.718;8.992;2023-07-13T12:06:56;25.70;53.50
16970;DHT22;8601;48.718;8.992;2023-07-13T12:09:27;26.00;53.60
16970;DHT22;8601;48.718;8.992;2023-07-13T12:11:57;25.80;52.50
16970;DHT22;8601;48.718;8.992;2023-07-13T12:14:27;25.50;53.20
16970;DHT22;8601;48.718;8.992;2023-07-13T12:16:54;25.70;52.40
16970;DHT22;8601;48.718;8.992;2023-07-13T12:19:23;26.10;50.40
16970;DHT22;8601;48.718;8.992;2023-07-13T12:21:53;26.00;49.30
16970;DHT22;8601;48.718;8.992;2023-07-13T12:24:21;25.90;52.20
16970;DHT22;8601;48.718;8.992;2023-07-13T12:26:53;26.10;52.70
16970;DHT22;8601;48.718;8.992;2023-07-13T12:29:21;25.80;50.60
16970;DHT22;8601;48.718;8.992;2023-07-13T12:31:49;25.20;52.70
16970;DHT22;8601;48.718;8.992;2023-07-13T12:34:19;25.10;52.60
16970;DHT22;8601;48.718;8.992;2023-07-13T12:36:48;24.90;50.90
16970;DHT22;8601;48.718;8.992;2023-07-13T12:39:18;24.90;51.30
16970;DHT22;8601;48.718;8.992;2023-07-13T12:41:46;25.40;53.30
16970;DHT22;8601;48.718;8.992;2023-07-13T12:44:15;25.60;51.00
16970;DHT22;8601;48.718;8.992;2023-07-13T12:46:58;25.70;53.10
16970;DHT22;8601;48.718;8.992;2023-07-13T12:49:31;25.60;52.00
16970;DHT22;8601;48.718;8.992;2023-07-13T12:52:02;25.60;53.00
16970;DHT22;8601;48.718;8.992;2023-07-13T12:54:31;26.00;52.50
16970;DHT22;8601;48.718;8.992;2023-07-13T12:56:59;26.40;50.80
16970;DHT22;8601;48.718;8.992;2023-07-13T12:59:31;26.50;51.40
16970;DHT22;8601;48.718;8.992;2023-07-13T13:02:28;26.40;50.20
16970;DHT22;8601;48.718;8.992;2023-07-13T13:04:56;26.20;50.00
16970;DHT22;8601;48.718;8.992;2023-07-13T13:07:24;26.20;52.60
16970;DHT22;8601;48.718;8.992;2023-07-13T13:09:52;26.50;50.30
16970;DHT22;8601;48.718;8.992;2023-07-13T13:12:22;26.50;46.30
16970;DHT22;8601;48.718;8.992;2023-07-13T13:14:50;26.60;45.70
16970;DHT22;8601;48.718;8.992;2023-07-13T13:17:22;26.80;43.80
16970;DHT22;8601;48.718;8.992;2023-07-13T13:19:51;26.70;45.90
16970;DHT22;8601;48.718;8.992;2023-07-13T13:22:19;26.50;46.10
16970;DHT22;8601;48.718;8.992;2023-07-13T13:24:47;26.60;47.70
16970;DHT22;8601;48.718;8.992;2023-07-13T13:27:15;26.30;47.10
16970;DHT22;8601;48.718;8.992;2023-07-13T13:29:44;26.40;46.40
16970;DHT22;8601;48.718;8.992;2023-07-13T13:32:12;26.20;46.70
16970;DHT22;8601;48.718;8.992;2023-07-13T13:34:41;26.60;47.10
16970;DHT22;8601;48.718;8.992;2023-07-13T13:37:18;27.00;46.30
16970;DHT22;8601;48.718;8.992;2023-07-13T13:39:46;26.80;45.80
16970;DHT22;8601;48.718;8.992;2023-07-13T13:42:13;26.00;45.60
16970;DHT22;8601;48.718;8.992;2023-07-13T13:44:40;25.70;47.80
16970;DHT22;8601;48.718;8.992;2023-07-13T13:47:17;26.00;50.30
16970;DHT22;8601;48.718;8.992;2023-07-13T13:49:48;26.00;46.60
16970;DHT22;8601;48.718;8.992;2023-07-13T13:52:15;26.20;48.10
16970;DHT22;8601;48.718;8.992;2023-07-13T13:54:42;26.30;48.20
16970;DHT22;8601;48.718;8.992;2023-07-13T13:57:08;26.30;48.00
16970;DHT22;8601;48.718;8.992;2023-07-13T13:59:37;26.50;45.90
16970;DHT22;8601;48.718;8.992;2023-07-13T14:02:19;26.60;47.30
16970;DHT22;8601;48.718;8.992;2023-07-13T14:04:51;26.80;46.90
16970;DHT22;8601;48.718;8.992;2023-07-13T14:07:19;26.50;46.50
16970;DHT22;8601;48.718;8.992;2023-07-13T14:09:46;26.00;45.90
16970;DHT22;8601;48.718;8.992;2023-07-13T14:12:13;26.00;47.20
16970;DHT22;8601;48.718;8.992;2023-07-13T14:14:39;25.70;47.40
16970;DHT22;8601;48.718;8.992;2023-07-13T14:17:18;25.60;47.20
16970;DHT22;8601;48.718;8.992;2023-07-13T14:19:47;25.80;50.50
16970;DHT22;8601;48.718;8.992;2023-07-13T14:22:18;25.80;47.60
16970;DHT22;8601;48.718;8.992;2023-07-13T14:24:45;25.50;48.20
16970;DHT22;8601;48.718;8.992;2023-07-13T14:27:13;25.20;49.50
16970;DHT22;8601;48.718;8.992;2023-07-13T14:29:39;25.20;50.40
16970;DHT22;8601;48.718;8.992;2023-07-13T14:32:10;25.10;49.20
16970;DHT22;8601;48.718;8.992;2023-07-13T14:34:37;25.20;48.40
16970;DHT22;8601;48.718;8.992;2023-07-13T14:37:05;25.10;49.40
16970;DHT22;8601;48.718;8.992;2023-07-13T14:39:34;25.20;50.10
16970;DHT22;8601;48.718;8.992;2023-07-13T14:42:00;25.40;50.20
16970;DHT22;8601;48.718;8.992;2023-07-13T14:44:30;25.80;50.00
16970;DHT22;8601;48.718;8.992;2023-07-13T14:46:58;26.20;50.20
16970;DHT22;8601;48.718;8.992;2023-07-13T14:49:29;26.30;48.00
16970;DHT22;8601;48.718;8.992;2023-07-13T14:51:59;26.50;48.40
16970;DHT22;8601;48.718;8.992;2023-07-13T14:54:26;26.30;47.20
16970;DHT22;8601;48.718;8.992;2023-07-13T14:56:55;26.30;49.60
16970;DHT22;8601;48.718;8.992;2023-07-13T14:59:21;26.30;47.30
16970;DHT22;8601;48.718;8.992;2023-07-13T15:01:49;26.40;48.70
16970;DHT22;8601;48.718;8.992;2023-07-13T15:04:17;26.10;48.60
16970;DHT22;8601;48.718;8.992;2023-07-13T15:06:55;26.00;48.50
16970;DHT22;8601;48.718;8.992;2023-07-13T15:09:23;26.10;48.80
16970;DHT22;8601;48.718;8.992;2023-07-13T15:11:52;26.50;49.90
16970;DHT22;8601;48.718;8.992;2023-07-13T15:14:20;26.50;49.70
16970;DHT22;8601;48.718;8.992;2023-07-13T15:16:48;26.50;48.30
16970;DHT22;8601;48.718;8.992;2023-07-13T15:19:16;26.70;49.90
16970;DHT22;8601;48.718;8.992;2023-07-13T15:21:44;26.70;49.00
16970;DHT22;8601;48.718;8.992;2023-07-13T15:24:11;26.60;47.40
16970;DHT22;8601;48.718;8.992;2023-07-13T15:26:38;26.50;48.30
16970;DHT22;8601;48.718;8.992;2023-07-13T15:29:05;26.50;47.10
16970;DHT22;8601;48.718;8.992;2023-07-13T15:31:34;26.50;47.80
16970;DHT22;8601;48.718;8.992;2023-07-13T15:34:09;26.50;47.10
16970;DHT22;8601;48.718;8.992;2023-07-13T15:36:37;26.20;46.70
16970;DHT22;8601;48.718;8.992;2023-07-13T15:39:04;26.20;46.90
16970;DHT22;8601;48.718;8.992;2023-07-13T15:41:31;26.20;46.40
16970;DHT22;8601;48.718;8.992;2023-07-13T15:43:59;26.20;47.10
16970;DHT22;8601;48.718;8.992;2023-07-13T15:46:27;26.30;49.50
16970;DHT22;8601;48.718;8.992;2023-07-13T15:48:57;26.20;48.10
16970;DHT22;8601;48.718;8.992;2023-07-13T15:51:26;26.00;47.80
16970;DHT22;8601;48.718;8.992;2023-07-13T15:53:55;26.00;47.50
16970;DHT22;8601;48.718;8.992;2023-07-13T15:56:25;26.20;46.50
16970;DHT22;8601;48.718;8.992;2023-07-13T15:58:53;26.00;47.30
16970;DHT22;8601;48.718;8.992;2023-07-13T16:01:21;25.90;47.30
16970;DHT22;8601;48.718;8.992;2023-07-13T16:03:49;25.90;48.40